Terminal Aerodrome Forecast
Issued by NWS

Home | Current Version | Previous Version | Text Only | Print | Product List | Glossary On
Versions: 1 2 3 4 5 6 7 8 9 10 11 12 13 14 15 16 17 18 19 20 21 22 23
000
FTUS41 KCAR 292320
TAFFVE
TAF
KFVE 292320Z 3000/3024 VRB03KT P6SM BKN035
     FM300500 00000KT 3SM BR BKN015
     FM301200 00000KT P6SM BKN015
     FM302000 22004KT P6SM SCT250=

USA.gov is the U.S. government's official web portal to all federal, state and local government web resources and services.